createdAt,value
2019-01-19T00:02:35.210Z,3.10
2019-01-19T00:05:59.398Z,3.10
2019-01-19T00:09:01.653Z,3.00
2019-01-19T00:12:27.718Z,3.00
2019-01-19T00:15:59.135Z,3.00
2019-01-19T00:19:52.620Z,3.00
2019-01-19T00:23:45.054Z,2.90
2019-01-19T00:26:51.689Z,2.90
2019-01-19T00:30:08.622Z,2.80
2019-01-19T00:33:19.358Z,2.20
2019-01-19T00:36:44.786Z,2.70
2019-01-19T00:40:18.589Z,2.70
2019-01-19T00:43:09.991Z,2.70
2019-01-19T00:46:34.681Z,2.70
2019-01-19T00:49:40.157Z,2.60
2019-01-19T00:52:52.079Z,2.60
2019-01-19T00:56:09.339Z,2.50
2019-01-19T00:59:02.823Z,2.50
2019-01-19T01:02:45.130Z,2.50
2019-01-19T01:05:32.104Z,2.50
2019-01-19T01:09:12.140Z,2.40
2019-01-19T01:12:40.642Z,2.40
2019-01-19T01:15:59.722Z,2.40
2019-01-19T01:19:20.376Z,2.40
2019-01-19T01:23:01.673Z,2.30
2019-01-19T01:26:11.231Z,2.30
2019-01-19T01:29:36.111Z,2.30
2019-01-19T01:33:01.039Z,2.30
2019-01-19T01:36:19.313Z,2.20
2019-01-19T01:39:25.847Z,2.20
2019-01-19T01:42:25.283Z,2.20
2019-01-19T01:45:31.987Z,2.20
2019-01-19T01:48:58.626Z,2.10
2019-01-19T01:52:15.549Z,2.10
2019-01-19T01:55:04.655Z,2.10
2019-01-19T01:58:06.557Z,2.10
2019-01-19T02:01:22.879Z,2.00
2019-01-19T02:05:16.315Z,2.00
2019-01-19T02:08:43.563Z,2.00
2019-01-19T02:12:00.033Z,1.90
2019-01-19T02:15:17.645Z,1.90
2019-01-19T02:18:54.023Z,1.90
2019-01-19T02:22:31.812Z,1.90
2019-01-19T02:26:05.095Z,1.80
2019-01-19T02:29:21.488Z,1.80
2019-01-19T02:33:16.319Z,1.80
2019-01-19T02:36:59.085Z,1.70
2019-01-19T02:40:44.333Z,1.70
2019-01-19T02:43:42.259Z,1.70
2019-01-19T02:47:12.641Z,1.60
2019-01-19T02:50:22.261Z,1.60
2019-01-19T02:53:34.377Z,1.60
2019-01-19T02:56:47.843Z,1.60
2019-01-19T02:59:34.886Z,1.60
2019-01-19T03:02:46.628Z,1.60
2019-01-19T03:06:04.842Z,1.60
2019-01-19T03:09:14.854Z,1.60
2019-01-19T03:12:55.576Z,0.90
2019-01-19T03:16:19.013Z,1.50
2019-01-19T03:19:26.268Z,1.50
2019-01-19T03:22:59.819Z,1.50
2019-01-19T03:26:06.436Z,1.50
2019-01-19T03:29:25.118Z,1.50
2019-01-19T03:32:55.890Z,1.40
2019-01-19T03:36:23.436Z,1.40
2019-01-19T03:39:46.143Z,1.40
2019-01-19T03:42:58.427Z,1.40
2019-01-19T03:46:15.092Z,1.40
2019-01-19T03:49:29.973Z,1.40
2019-01-19T03:52:47.532Z,1.30
2019-01-19T03:56:28.803Z,1.30
2019-01-19T04:00:09.433Z,1.30
2019-01-19T04:03:52.322Z,1.30
2019-01-19T04:06:43.628Z,-0.10
2019-01-19T04:10:02.482Z,1.20
2019-01-19T04:13:24.675Z,1.20
2019-01-19T04:17:17.905Z,1.20
2019-01-19T04:20:21.847Z,1.20
2019-01-19T04:23:06.686Z,1.20
2019-01-19T04:26:06.128Z,1.20
2019-01-19T04:28:38.245Z,1.20
2019-01-19T04:31:10.202Z,1.20
2019-01-19T04:33:42.061Z,1.20
2019-01-19T04:36:21.497Z,1.20
2019-01-19T04:38:48.006Z,1.20
2019-01-19T04:41:19.854Z,1.20
2019-01-19T04:43:51.832Z,1.20
2019-01-19T04:46:23.646Z,1.20
2019-01-19T04:48:55.667Z,1.20
2019-01-19T04:51:27.501Z,1.20
2019-01-19T04:53:59.381Z,1.20
2019-01-19T04:56:31.176Z,1.20
2019-01-19T04:59:03.014Z,1.20
2019-01-19T05:01:35.044Z,1.20
2019-01-19T05:04:07.161Z,1.20
2019-01-19T05:06:39.024Z,1.20
2019-01-19T05:09:11.225Z,1.20
2019-01-19T05:11:43.096Z,1.20
2019-01-19T05:14:14.959Z,1.20
2019-01-19T05:16:46.951Z,1.20
2019-01-19T05:19:18.760Z,1.20
2019-01-19T05:21:50.579Z,1.20
2019-01-19T05:24:22.427Z,1.20
2019-01-19T05:26:54.382Z,1.20
2019-01-19T05:29:26.224Z,1.20
2019-01-19T05:31:57.986Z,1.30
2019-01-19T05:34:29.932Z,1.20
2019-01-19T05:37:01.697Z,1.20
2019-01-19T05:39:33.540Z,1.20
2019-01-19T05:42:05.342Z,1.30
2019-01-19T05:44:37.154Z,1.30
2019-01-19T05:47:08.972Z,1.20
2019-01-19T05:49:40.953Z,1.20
2019-01-19T05:52:12.952Z,1.30
2019-01-19T05:54:44.816Z,1.20
2019-01-19T05:57:16.617Z,1.20
2019-01-19T05:59:48.447Z,1.20
2019-01-19T06:02:21.864Z,1.30
2019-01-19T06:04:53.818Z,1.20
2019-01-19T06:07:25.644Z,1.30
2019-01-19T06:09:57.518Z,1.30
2019-01-19T06:12:29.290Z,1.20
2019-01-19T06:15:01.227Z,1.20
2019-01-19T06:17:33.235Z,1.20
2019-01-19T06:20:06.324Z,1.30
2019-01-19T06:22:38.228Z,1.30
2019-01-19T06:25:11.361Z,1.30
2019-01-19T06:27:43.706Z,1.30
2019-01-19T06:30:21.869Z,1.30
2019-01-19T06:32:53.990Z,1.30
2019-01-19T06:35:25.979Z,1.30
2019-01-19T06:37:57.882Z,1.30
2019-01-19T06:40:29.633Z,1.30
2019-01-19T06:43:02.560Z,2.00
2019-01-19T06:45:35.088Z,1.30
2019-01-19T06:48:07.495Z,1.30
2019-01-19T06:50:39.365Z,1.30
2019-01-19T06:53:11.225Z,1.30
2019-01-19T06:55:43.054Z,1.30
2019-01-19T06:58:14.984Z,1.30
2019-01-19T07:00:46.873Z,1.30
2019-01-19T07:03:18.731Z,1.30
2019-01-19T07:05:50.683Z,1.30
2019-01-19T07:08:22.578Z,1.30
2019-01-19T07:10:54.513Z,1.30
2019-01-19T07:13:26.418Z,1.30
2019-01-19T07:15:58.211Z,1.30
2019-01-19T07:18:30.194Z,1.30
2019-01-19T07:21:02.081Z,1.30
2019-01-19T07:23:33.916Z,1.40
2019-01-19T07:26:05.783Z,1.40
2019-01-19T07:28:37.607Z,1.30
2019-01-19T07:31:09.384Z,1.40
2019-01-19T07:33:41.241Z,1.40
2019-01-19T07:36:13.116Z,1.40
2019-01-19T07:38:45.054Z,1.40
2019-01-19T07:41:17.195Z,1.40
2019-01-19T07:43:52.679Z,1.40
2019-01-19T07:46:25.404Z,1.40
2019-01-19T07:48:57.280Z,1.40
2019-01-19T07:51:29.241Z,1.50
2019-01-19T07:54:01.176Z,1.50
2019-01-19T07:56:34.136Z,1.50
2019-01-19T07:59:06.242Z,1.50
2019-01-19T08:01:38.084Z,1.50
2019-01-19T08:04:10.182Z,1.70
2019-01-19T08:07:17.478Z,1.50
2019-01-19T08:10:08.774Z,1.60
2019-01-19T08:12:40.650Z,1.60
2019-01-19T08:15:16.498Z,1.60
2019-01-19T08:17:57.339Z,1.70
2019-01-19T08:20:29.190Z,1.70
2019-01-19T08:23:02.831Z,1.80
2019-01-19T08:25:38.930Z,1.90
2019-01-19T08:28:11.036Z,1.90
2019-01-19T08:30:42.853Z,2.00
2019-01-19T08:33:17.100Z,2.10
2019-01-19T08:35:49.299Z,2.10
2019-01-19T08:38:22.499Z,2.30
2019-01-19T08:40:56.734Z,2.40
2019-01-19T08:43:40.224Z,2.50
2019-01-19T08:46:12.176Z,3.30
2019-01-19T08:48:44.146Z,2.70
2019-01-19T08:51:17.374Z,2.90
2019-01-19T08:53:49.278Z,2.90
2019-01-19T08:56:23.366Z,3.10
2019-01-19T08:58:55.256Z,3.10
2019-01-19T09:01:28.337Z,3.30
2019-01-19T09:04:01.389Z,3.30
2019-01-19T09:06:33.258Z,3.40
2019-01-19T09:09:07.420Z,3.60
2019-01-19T09:11:39.467Z,3.70
2019-01-19T09:14:11.322Z,3.90
2019-01-19T09:16:44.369Z,4.10
2019-01-19T09:19:16.443Z,4.30
2019-01-19T09:21:49.728Z,4.50
2019-01-19T09:24:31.434Z,4.60
2019-01-19T09:27:04.488Z,4.90
2019-01-19T09:29:37.647Z,5.10
2019-01-19T09:32:09.912Z,5.30
2019-01-19T09:34:41.742Z,5.50
2019-01-19T09:37:15.089Z,5.80
2019-01-19T09:39:46.840Z,6.20
2019-01-19T09:42:18.745Z,6.50
2019-01-19T09:44:50.856Z,6.70
2019-01-19T09:47:22.782Z,7.30
2019-01-19T09:49:54.622Z,7.80
2019-01-19T09:52:28.251Z,8.20
2019-01-19T09:55:00.319Z,8.60
2019-01-19T09:57:34.377Z,9.00
2019-01-19T10:00:10.471Z,9.50
2019-01-19T10:02:51.384Z,9.80
2019-01-19T10:05:23.864Z,10.20
2019-01-19T10:07:55.755Z,10.50
2019-01-19T10:10:31.284Z,10.70
2019-01-19T10:13:03.525Z,10.80
2019-01-19T10:15:35.400Z,11.00
2019-01-19T10:18:09.259Z,11.10
2019-01-19T10:20:41.350Z,11.20
2019-01-19T10:23:13.238Z,11.40
2019-01-19T10:25:47.261Z,11.60
2019-01-19T10:28:19.140Z,11.80
2019-01-19T10:30:52.618Z,12.00
2019-01-19T10:33:24.885Z,12.30
2019-01-19T10:35:58.461Z,12.60
2019-01-19T10:38:30.538Z,12.90
2019-01-19T10:41:03.935Z,13.30
2019-01-19T10:43:35.814Z,13.70
2019-01-19T10:46:07.727Z,14.00
2019-01-19T10:48:39.795Z,14.30
2019-01-19T10:51:12.041Z,14.50
2019-01-19T10:53:43.988Z,14.60
2019-01-19T10:56:15.987Z,14.70
2019-01-19T10:58:48.319Z,14.90
2019-01-19T11:01:20.312Z,15.00
2019-01-19T11:03:53.705Z,15.20
2019-01-19T11:06:25.570Z,15.40
2019-01-19T11:08:57.595Z,15.70
2019-01-19T11:11:29.513Z,15.90
2019-01-19T11:14:01.438Z,16.10
2019-01-19T11:16:33.295Z,16.20
2019-01-19T11:19:05.263Z,16.40
2019-01-19T11:21:37.323Z,16.70
2019-01-19T11:24:09.499Z,16.90
2019-01-19T11:26:41.574Z,17.00
2019-01-19T11:29:13.446Z,17.20
2019-01-19T11:31:45.504Z,17.40
2019-01-19T11:34:17.502Z,17.50
2019-01-19T11:36:49.695Z,17.70
2019-01-19T11:39:21.906Z,17.80
2019-01-19T11:41:53.928Z,17.90
2019-01-19T11:44:25.960Z,18.00
2019-01-19T11:46:58.116Z,18.00
2019-01-19T11:49:30.003Z,18.00
2019-01-19T11:52:01.938Z,18.10
2019-01-19T11:54:34.182Z,18.20
2019-01-19T11:57:17.420Z,18.20
2019-01-19T11:59:51.197Z,18.20
2019-01-19T12:02:23.046Z,18.10
2019-01-19T12:04:55.138Z,18.00
2019-01-19T12:07:27.203Z,17.90
2019-01-19T12:09:59.116Z,17.60
2019-01-19T12:12:31.328Z,17.10
2019-01-19T12:15:03.335Z,16.70
2019-01-19T12:17:35.480Z,16.20
2019-01-19T12:20:12.502Z,15.80
2019-01-19T12:22:44.515Z,15.50
2019-01-19T12:25:18.465Z,15.00
2019-01-19T12:27:50.424Z,14.70
2019-01-19T12:30:25.386Z,14.40
2019-01-19T12:32:57.297Z,14.10
2019-01-19T12:35:29.628Z,13.90
2019-01-19T12:38:01.800Z,13.70
2019-01-19T12:40:33.711Z,13.50
2019-01-19T12:43:18.621Z,13.30
2019-01-19T12:46:09.276Z,13.20
2019-01-19T12:48:41.220Z,13.00
2019-01-19T12:51:14.863Z,12.90
2019-01-19T12:53:46.860Z,12.80
2019-01-19T12:56:18.737Z,12.60
2019-01-19T12:58:50.908Z,12.40
2019-01-19T13:01:23.047Z,12.20
2019-01-19T13:03:55.143Z,12.10
2019-01-19T13:07:02.230Z,12.00
2019-01-19T13:09:56.634Z,12.10
2019-01-19T13:12:52.995Z,12.20
2019-01-19T13:16:15.789Z,12.40
2019-01-19T13:19:23.507Z,12.60
2019-01-19T13:23:17.044Z,12.80
2019-01-19T13:26:36.051Z,12.90
2019-01-19T13:30:02.753Z,13.00
2019-01-19T13:32:59.788Z,13.10
2019-01-19T13:36:32.693Z,13.10
2019-01-19T13:39:56.962Z,13.10
2019-01-19T13:43:26.118Z,13.00
2019-01-19T13:46:58.701Z,13.00
2019-01-19T13:50:26.438Z,12.90
2019-01-19T13:54:13.907Z,12.90
2019-01-19T13:57:29.382Z,12.90
2019-01-19T14:01:06.690Z,12.90
2019-01-19T14:04:36.798Z,12.90
2019-01-19T14:08:19.296Z,12.90
2019-01-19T14:11:44.392Z,13.00
2019-01-19T14:14:37.827Z,12.90
2019-01-19T14:17:56.732Z,12.80
2019-01-19T14:21:15.380Z,12.60
2019-01-19T14:24:09.633Z,12.60
2019-01-19T14:27:07.159Z,12.50
2019-01-19T14:30:32.270Z,12.50
2019-01-19T14:34:11.323Z,12.60
2019-01-19T14:37:39.326Z,12.60
2019-01-19T14:40:40.541Z,12.80
2019-01-19T14:44:18.582Z,12.80
2019-01-19T14:47:57.070Z,12.90
2019-01-19T14:51:34.172Z,12.90
2019-01-19T14:55:00.640Z,12.80
2019-01-19T14:58:07.109Z,12.60
2019-01-19T15:01:09.204Z,11.30
2019-01-19T15:04:32.440Z,12.20
2019-01-19T15:08:13.609Z,12.10
2019-01-19T15:11:52.748Z,12.00
2019-01-19T15:15:03.567Z,11.70
2019-01-19T15:18:04.472Z,11.40
2019-01-19T15:21:32.038Z,11.30
2019-01-19T15:24:42.439Z,11.00
2019-01-19T15:28:00.960Z,10.80
2019-01-19T15:31:31.970Z,10.60
2019-01-19T15:35:08.261Z,10.30
2019-01-19T15:38:32.639Z,10.00
2019-01-19T15:41:50.531Z,9.80
2019-01-19T15:45:06.079Z,9.50
2019-01-19T15:48:45.547Z,9.30
2019-01-19T15:51:56.935Z,9.10
2019-01-19T15:55:31.716Z,8.90
2019-01-19T15:58:58.941Z,8.70
2019-01-19T16:02:20.559Z,8.50
2019-01-19T16:05:59.565Z,8.30
2019-01-19T16:09:36.080Z,8.10
2019-01-19T16:13:20.229Z,7.90
2019-01-19T16:16:52.196Z,7.80
2019-01-19T16:20:32.184Z,7.60
2019-01-19T16:24:17.122Z,7.50
2019-01-19T16:27:40.404Z,7.70
2019-01-19T16:31:03.548Z,7.20
2019-01-19T16:34:37.210Z,7.10
2019-01-19T16:37:53.454Z,7.00
2019-01-19T16:41:52.994Z,6.90
2019-01-19T16:45:23.233Z,6.80
2019-01-19T16:48:45.783Z,6.60
2019-01-19T16:52:24.209Z,6.50
2019-01-19T16:55:45.549Z,6.40
2019-01-19T16:59:42.211Z,6.40
2019-01-19T17:03:02.611Z,6.20
2019-01-19T17:06:37.599Z,6.20
2019-01-19T17:10:05.711Z,5.70
2019-01-19T17:13:25.544Z,6.00
2019-01-19T17:16:34.036Z,5.90
2019-01-19T17:20:13.456Z,5.80
2019-01-19T17:23:09.790Z,5.80
2019-01-19T17:26:38.979Z,5.70
2019-01-19T17:29:35.632Z,5.60
2019-01-19T17:32:41.754Z,5.50
2019-01-19T17:36:30.766Z,5.40
2019-01-19T17:39:42.195Z,5.40
2019-01-19T17:43:14.317Z,5.30
2019-01-19T17:47:01.508Z,5.20
2019-01-19T17:50:31.893Z,5.10
2019-01-19T17:54:13.317Z,5.00
2019-01-19T17:57:33.090Z,4.90
2019-01-19T18:00:36.209Z,4.80
2019-01-19T18:03:49.364Z,4.70
2019-01-19T18:07:01.123Z,4.60
2019-01-19T18:10:24.740Z,4.50
2019-01-19T18:13:34.435Z,4.50
2019-01-19T18:17:20.634Z,4.40
2019-01-19T18:21:03.845Z,4.30
2019-01-19T18:24:33.551Z,4.20
2019-01-19T18:27:31.349Z,4.10
2019-01-19T18:31:08.229Z,4.10
2019-01-19T18:34:48.459Z,4.10
2019-01-19T18:38:35.669Z,4.00
2019-01-19T18:42:30.936Z,4.00
2019-01-19T18:46:08.015Z,4.00
2019-01-19T18:49:27.397Z,3.90
2019-01-19T18:52:31.712Z,3.90
2019-01-19T18:55:45.536Z,3.80
2019-01-19T18:59:17.074Z,3.90
2019-01-19T19:02:44.045Z,3.80
2019-01-19T19:06:20.193Z,3.80
2019-01-19T19:09:38.379Z,3.80
2019-01-19T19:13:00.116Z,3.70
2019-01-19T19:16:51.227Z,3.70
2019-01-19T19:20:03.028Z,3.70
2019-01-19T19:23:09.962Z,3.70
2019-01-19T19:26:43.695Z,3.70
2019-01-19T19:29:56.770Z,3.60
2019-01-19T19:33:20.304Z,3.60
2019-01-19T19:36:52.081Z,3.60
2019-01-19T19:40:15.555Z,3.50
2019-01-19T19:43:24.030Z,3.50
2019-01-19T19:46:28.575Z,3.50
2019-01-19T19:49:49.591Z,3.40
2019-01-19T19:52:27.779Z,3.40
2019-01-19T19:54:54.032Z,3.40
2019-01-19T19:57:26.226Z,3.40
2019-01-19T19:59:58.175Z,3.40
2019-01-19T20:02:33.153Z,3.40
2019-01-19T20:05:06.919Z,3.30
2019-01-19T20:07:42.818Z,3.30
2019-01-19T20:10:17.274Z,3.30
2019-01-19T20:12:48.719Z,3.30
2019-01-19T20:15:24.195Z,3.30
2019-01-19T20:17:56.263Z,3.30
2019-01-19T20:20:28.143Z,3.20
2019-01-19T20:23:00.252Z,3.20
2019-01-19T20:25:35.158Z,3.20
2019-01-19T20:28:08.712Z,3.20
2019-01-19T20:30:44.814Z,3.20
2019-01-19T20:33:18.887Z,3.20
2019-01-19T20:35:50.759Z,3.20
2019-01-19T20:38:22.791Z,3.20
2019-01-19T20:40:54.950Z,3.10
2019-01-19T20:43:26.935Z,3.10
2019-01-19T20:45:58.987Z,3.10
2019-01-19T20:48:31.333Z,3.10
2019-01-19T20:51:03.326Z,3.00
2019-01-19T20:53:35.852Z,3.00
2019-01-19T20:56:08.522Z,3.00
2019-01-19T20:58:40.404Z,2.90
2019-01-19T21:01:12.714Z,2.80
2019-01-19T21:03:44.791Z,2.90
2019-01-19T21:06:18.031Z,2.90
2019-01-19T21:08:50.289Z,2.90
2019-01-19T21:11:22.596Z,2.80
2019-01-19T21:13:54.874Z,2.80
2019-01-19T21:16:26.807Z,2.80
2019-01-19T21:18:59.049Z,2.80
2019-01-19T21:21:31.292Z,2.70
2019-01-19T21:24:03.516Z,2.70
2019-01-19T21:26:35.761Z,2.70
2019-01-19T21:29:07.724Z,2.70
2019-01-19T21:31:39.788Z,2.70
2019-01-19T21:34:12.045Z,2.70
2019-01-19T21:36:43.911Z,2.70
2019-01-19T21:39:15.796Z,2.60
2019-01-19T21:41:48.516Z,2.60
2019-01-19T21:44:20.546Z,2.60
2019-01-19T21:46:52.581Z,2.60
2019-01-19T21:49:24.563Z,2.60
2019-01-19T21:51:56.573Z,2.60
2019-01-19T21:54:29.508Z,2.50
2019-01-19T21:57:19.675Z,2.50
2019-01-19T21:59:51.782Z,2.50
2019-01-19T22:02:23.703Z,2.50
2019-01-19T22:04:55.634Z,2.50
2019-01-19T22:07:27.659Z,2.40
2019-01-19T22:09:59.770Z,2.40
2019-01-19T22:12:31.685Z,2.40
2019-01-19T22:15:04.442Z,2.40
2019-01-19T22:17:39.836Z,2.40
2019-01-19T22:20:12.715Z,2.30
2019-01-19T22:22:46.272Z,2.30
2019-01-19T22:25:18.574Z,2.30
2019-01-19T22:27:51.062Z,2.30
2019-01-19T22:30:25.355Z,2.30
2019-01-19T22:32:57.637Z,2.30
2019-01-19T22:35:30.601Z,2.20
2019-01-19T22:38:02.868Z,2.30
2019-01-19T22:40:35.394Z,2.30
2019-01-19T22:43:10.940Z,2.20
2019-01-19T22:45:43.324Z,2.20
2019-01-19T22:48:15.345Z,2.20
2019-01-19T22:50:47.454Z,2.20
2019-01-19T22:53:19.865Z,2.20
2019-01-19T22:55:51.894Z,2.20
2019-01-19T22:58:23.819Z,2.20
2019-01-19T23:01:31.485Z,2.20
2019-01-19T23:04:04.958Z,2.20
2019-01-19T23:06:37.122Z,2.20
2019-01-19T23:09:12.246Z,2.20
2019-01-19T23:11:44.704Z,2.10
2019-01-19T23:14:17.303Z,2.20
2019-01-19T23:16:49.275Z,2.10
2019-01-19T23:19:21.231Z,2.10
2019-01-19T23:21:53.300Z,2.10
2019-01-19T23:24:25.213Z,2.10
2019-01-19T23:27:04.059Z,2.10
2019-01-19T23:29:35.969Z,2.10
2019-01-19T23:32:07.847Z,2.00
2019-01-19T23:34:39.784Z,2.00
2019-01-19T23:37:11.846Z,2.00
2019-01-19T23:39:43.734Z,2.00
2019-01-19T23:42:15.567Z,2.00
2019-01-19T23:44:47.407Z,2.00
2019-01-19T23:47:19.401Z,1.90
2019-01-19T23:49:51.227Z,1.90
2019-01-19T23:52:23.154Z,1.90
2019-01-19T23:54:55.016Z,1.90
2019-01-19T23:57:27.046Z,1.90
2019-01-19T23:59:59.136Z,1.90
